sensor_id;sensor_type;location;lat;lon;timestamp;pressure;altitude;pressure_sealevel;temperature;humidity
56074;BME280;41950;55.840;37.442;2024-02-14T00:01:54;100509.88;;;-11.54;81.57
56074;BME280;41950;55.840;37.442;2024-02-14T00:04:20;100612.88;;;-11.00;81.61
56074;BME280;41950;55.840;37.442;2024-02-14T00:06:47;100550.22;;;-11.30;81.38
56074;BME280;41950;55.840;37.442;2024-02-14T00:09:13;100451.53;;;-11.93;81.45
56074;BME280;41950;55.840;37.442;2024-02-14T00:11:39;100597.59;;;-11.13;81.69
56074;BME280;41950;55.840;37.442;2024-02-14T00:14:04;100604.88;;;-11.06;81.78
56074;BME280;41950;55.840;37.442;2024-02-14T00:16:36;100561.75;;;-11.32;81.35
56074;BME280;41950;55.840;37.442;2024-02-14T00:19:04;100529.66;;;-11.57;81.24
56074;BME280;41950;55.840;37.442;2024-02-14T00:21:30;100540.94;;;-11.51;81.34
56074;BME280;41950;55.840;37.442;2024-02-14T00:23:57;100585.53;;;-11.27;81.98
56074;BME280;41950;55.840;37.442;2024-02-14T00:26:24;100601.38;;;-11.18;81.66
56074;BME280;41950;55.840;37.442;2024-02-14T00:28:50;100570.13;;;-11.42;81.67
56074;BME280;41950;55.840;37.442;2024-02-14T00:31:16;100584.91;;;-11.35;81.44
56074;BME280;41950;55.840;37.442;2024-02-14T00:34:02;100599.06;;;-11.25;81.67
56074;BME280;41950;55.840;37.442;2024-02-14T00:36:28;100589.06;;;-11.35;81.63
56074;BME280;41950;55.840;37.442;2024-02-14T00:38:54;100561.59;;;-11.54;81.41
56074;BME280;41950;55.840;37.442;2024-02-14T00:41:20;100578.66;;;-11.50;81.08
56074;BME280;41950;55.840;37.442;2024-02-14T00:43:46;100588.56;;;-11.41;81.34
56074;BME280;41950;55.840;37.442;2024-02-14T00:46:16;100611.59;;;-11.35;81.15
56074;BME280;41950;55.840;37.442;2024-02-14T00:48:42;100571.22;;;-11.59;81.04
56074;BME280;41950;55.840;37.442;2024-02-14T00:51:10;100615.84;;;-11.44;81.01
56074;BME280;41950;55.840;37.442;2024-02-14T00:53:37;100552.03;;;-11.89;81.43
56074;BME280;41950;55.840;37.442;2024-02-14T00:56:03;100591.38;;;-11.67;81.56
56074;BME280;41950;55.840;37.442;2024-02-14T00:58:29;100590.50;;;-11.68;81.51
56074;BME280;41950;55.840;37.442;2024-02-14T01:00:55;100524.66;;;-12.16;81.56
56074;BME280;41950;55.840;37.442;2024-02-14T01:03:21;100544.38;;;-12.00;81.94
56074;BME280;41950;55.840;37.442;2024-02-14T01:05:47;100622.22;;;-11.48;81.76
56074;BME280;41950;55.840;37.442;2024-02-14T01:08:13;100543.25;;;-11.94;81.59
56074;BME280;41950;55.840;37.442;2024-02-14T01:10:40;100637.13;;;-11.49;81.54
56074;BME280;41950;55.840;37.442;2024-02-14T01:13:06;100575.06;;;-11.82;81.54
56074;BME280;41950;55.840;37.442;2024-02-14T01:15:32;100475.06;;;-12.40;81.54
56074;BME280;41950;55.840;37.442;2024-02-14T01:17:59;100621.44;;;-11.57;81.47
56074;BME280;41950;55.840;37.442;2024-02-14T01:20:24;100532.19;;;-12.06;81.49
56074;BME280;41950;55.840;37.442;2024-02-14T01:22:50;100624.81;;;-11.57;81.15
56074;BME280;41950;55.840;37.442;2024-02-14T01:25:28;100590.72;;;-11.75;81.09
56074;BME280;41950;55.840;37.442;2024-02-14T01:27:54;100617.91;;;-11.69;81.14
56074;BME280;41950;55.840;37.442;2024-02-14T01:30:20;100627.94;;;-11.69;81.42
56074;BME280;41950;55.840;37.442;2024-02-14T01:32:46;100579.94;;;-11.94;81.21
56074;BME280;41950;55.840;37.442;2024-02-14T01:35:11;100553.56;;;-12.20;81.48
56074;BME280;41950;55.840;37.442;2024-02-14T01:37:38;100605.59;;;-11.87;81.46
56074;BME280;41950;55.840;37.442;2024-02-14T01:40:06;100637.94;;;-11.69;81.46
56074;BME280;41950;55.840;37.442;2024-02-14T01:42:47;100633.66;;;-11.80;81.25
56074;BME280;41950;55.840;37.442;2024-02-14T01:45:13;100641.06;;;-11.72;81.28
56074;BME280;41950;55.840;37.442;2024-02-14T01:47:48;100612.69;;;-12.01;81.34
56074;BME280;41950;55.840;37.442;2024-02-14T01:50:16;100654.19;;;-11.74;81.20
56074;BME280;41950;55.840;37.442;2024-02-14T01:52:42;100563.78;;;-12.27;81.30
56074;BME280;41950;55.840;37.442;2024-02-14T01:55:11;100647.19;;;-11.78;81.28
56074;BME280;41950;55.840;37.442;2024-02-14T01:57:38;100590.59;;;-12.15;80.80
56074;BME280;41950;55.840;37.442;2024-02-14T02:00:06;100657.56;;;-11.84;80.94
56074;BME280;41950;55.840;37.442;2024-02-14T02:02:39;100590.44;;;-12.27;80.68
56074;BME280;41950;55.840;37.442;2024-02-14T02:05:05;100626.28;;;-12.08;81.02
56074;BME280;41950;55.840;37.442;2024-02-14T02:07:32;100672.94;;;-11.90;81.05
56074;BME280;41950;55.840;37.442;2024-02-14T02:09:59;100603.69;;;-12.28;80.87
56074;BME280;41950;55.840;37.442;2024-02-14T02:12:24;100638.53;;;-12.11;80.95
56074;BME280;41950;55.840;37.442;2024-02-14T02:15:12;100638.41;;;-12.12;80.96
56074;BME280;41950;55.840;37.442;2024-02-14T02:17:58;100637.91;;;-12.08;80.89
56074;BME280;41950;55.840;37.442;2024-02-14T02:20:45;100595.97;;;-12.40;80.74
56074;BME280;41950;55.840;37.442;2024-02-14T02:23:13;100671.66;;;-11.95;80.89
56074;BME280;41950;55.840;37.442;2024-02-14T02:25:44;100670.50;;;-11.98;80.76
56074;BME280;41950;55.840;37.442;2024-02-14T02:28:29;100660.28;;;-12.10;80.72
56074;BME280;41950;55.840;37.442;2024-02-14T02:30:55;100651.91;;;-12.10;80.67
56074;BME280;41950;55.840;37.442;2024-02-14T02:33:22;100591.31;;;-12.45;80.66
56074;BME280;41950;55.840;37.442;2024-02-14T02:35:50;100577.16;;;-12.55;80.68
56074;BME280;41950;55.840;37.442;2024-02-14T02:38:36;100664.91;;;-12.14;80.40
56074;BME280;41950;55.840;37.442;2024-02-14T02:41:22;100622.19;;;-12.45;80.56
56074;BME280;41950;55.840;37.442;2024-02-14T02:44:07;100694.81;;;-12.16;80.56
56074;BME280;41950;55.840;37.442;2024-02-14T02:47:02;100682.69;;;-12.11;80.41
56074;BME280;41950;55.840;37.442;2024-02-14T02:49:48;100691.06;;;-12.11;80.54
56074;BME280;41950;55.840;37.442;2024-02-14T02:52:34;100529.53;;;-13.13;80.26
56074;BME280;41950;55.840;37.442;2024-02-14T02:55:20;100700.69;;;-12.15;80.54
56074;BME280;41950;55.840;37.442;2024-02-14T02:57:52;100658.34;;;-12.41;80.40
56074;BME280;41950;55.840;37.442;2024-02-14T03:00:18;100709.41;;;-12.21;80.46
56074;BME280;41950;55.840;37.442;2024-02-14T03:03:02;100696.75;;;-12.22;80.61
56074;BME280;41950;55.840;37.442;2024-02-14T03:05:50;100696.50;;;-12.25;80.44
56074;BME280;41950;55.840;37.442;2024-02-14T03:08:35;100702.13;;;-12.28;80.93
56074;BME280;41950;55.840;37.442;2024-02-14T03:11:23;100661.53;;;-12.53;80.79
56074;BME280;41950;55.840;37.442;2024-02-14T03:14:10;100634.41;;;-12.67;80.93
56074;BME280;41950;55.840;37.442;2024-02-14T03:16:56;100640.31;;;-12.66;80.71
56074;BME280;41950;55.840;37.442;2024-02-14T03:19:25;100664.81;;;-12.62;80.50
56074;BME280;41950;55.840;37.442;2024-02-14T03:21:55;100714.66;;;-12.36;80.68
56074;BME280;41950;55.840;37.442;2024-02-14T03:24:21;100707.50;;;-12.42;80.72
56074;BME280;41950;55.840;37.442;2024-02-14T03:26:50;100632.56;;;-12.97;80.73
56074;BME280;41950;55.840;37.442;2024-02-14T03:29:17;100693.06;;;-12.63;81.00
56074;BME280;41950;55.840;37.442;2024-02-14T03:31:46;100715.34;;;-12.48;81.07
56074;BME280;41950;55.840;37.442;2024-02-14T03:34:12;100679.75;;;-12.72;81.08
56074;BME280;41950;55.840;37.442;2024-02-14T03:36:38;100542.97;;;-13.49;80.80
56074;BME280;41950;55.840;37.442;2024-02-14T03:39:05;100725.94;;;-12.50;80.86
56074;BME280;41950;55.840;37.442;2024-02-14T03:41:31;100601.63;;;-13.26;80.81
56074;BME280;41950;55.840;37.442;2024-02-14T03:43:57;100717.44;;;-12.52;80.99
56074;BME280;41950;55.840;37.442;2024-02-14T03:46:28;100647.88;;;-13.02;80.63
56074;BME280;41950;55.840;37.442;2024-02-14T03:48:54;100734.81;;;-12.54;81.02
56074;BME280;41950;55.840;37.442;2024-02-14T03:51:23;100730.41;;;-12.56;81.09
56074;BME280;41950;55.840;37.442;2024-02-14T03:53:49;100682.94;;;-12.92;80.96
56074;BME280;41950;55.840;37.442;2024-02-14T03:56:15;100736.91;;;-12.58;81.14
56074;BME280;41950;55.840;37.442;2024-02-14T03:58:42;100662.13;;;-13.01;81.06
56074;BME280;41950;55.840;37.442;2024-02-14T04:01:08;100569.53;;;-13.68;80.81
56074;BME280;41950;55.840;37.442;2024-02-14T04:03:35;100587.63;;;-13.52;80.72
56074;BME280;41950;55.840;37.442;2024-02-14T04:06:01;100610.50;;;-13.38;80.76
56074;BME280;41950;55.840;37.442;2024-02-14T04:08:27;100671.72;;;-13.06;80.68
56074;BME280;41950;55.840;37.442;2024-02-14T04:10:54;100564.69;;;-13.75;81.04
56074;BME280;41950;55.840;37.442;2024-02-14T04:13:20;100481.53;;;-14.29;80.88
56074;BME280;41950;55.840;37.442;2024-02-14T04:15:46;100640.47;;;-13.38;80.93
56074;BME280;41950;55.840;37.442;2024-02-14T04:18:30;100552.56;;;-13.89;81.02
56074;BME280;41950;55.840;37.442;2024-02-14T04:20:56;100605.31;;;-13.59;80.90
56074;BME280;41950;55.840;37.442;2024-02-14T04:23:22;100474.31;;;-14.53;81.04
56074;BME280;41950;55.840;37.442;2024-02-14T04:25:48;100550.53;;;-13.93;80.96
56074;BME280;41950;55.840;37.442;2024-02-14T04:28:16;100756.28;;;-12.83;81.14
56074;BME280;41950;55.840;37.442;2024-02-14T04:30:42;100613.84;;;-13.74;80.73
56074;BME280;41950;55.840;37.442;2024-02-14T04:33:28;100704.16;;;-13.25;80.93
56074;BME280;41950;55.840;37.442;2024-02-14T04:35:55;100656.97;;;-13.58;81.00
56074;BME280;41950;55.840;37.442;2024-02-14T04:38:21;100616.50;;;-13.73;81.20
56074;BME280;41950;55.840;37.442;2024-02-14T04:40:47;100668.09;;;-13.46;81.38
56074;BME280;41950;55.840;37.442;2024-02-14T04:43:13;100695.69;;;-13.35;81.01
56074;BME280;41950;55.840;37.442;2024-02-14T04:45:39;100757.22;;;-13.00;81.25
56074;BME280;41950;55.840;37.442;2024-02-14T04:48:14;100765.47;;;-13.01;81.34
56074;BME280;41950;55.840;37.442;2024-02-14T04:50:40;100767.94;;;-13.01;81.45
56074;BME280;41950;55.840;37.442;2024-02-14T04:53:05;100753.88;;;-13.09;81.19
56074;BME280;41950;55.840;37.442;2024-02-14T04:55:32;100782.19;;;-13.00;81.18
56074;BME280;41950;55.840;37.442;2024-02-14T04:57:59;100767.06;;;-13.01;81.21
56074;BME280;41950;55.840;37.442;2024-02-14T05:00:26;100661.88;;;-13.68;81.30
56074;BME280;41950;55.840;37.442;2024-02-14T05:02:53;100703.94;;;-13.54;80.88
56074;BME280;41950;55.840;37.442;2024-02-14T05:05:19;100666.25;;;-13.74;80.95
56074;BME280;41950;55.840;37.442;2024-02-14T05:07:57;100801.91;;;-13.03;81.11
56074;BME280;41950;55.840;37.442;2024-02-14T05:10:24;100802.94;;;-13.01;81.28
56074;BME280;41950;55.840;37.442;2024-02-14T05:12:49;100663.19;;;-13.80;81.06
56074;BME280;41950;55.840;37.442;2024-02-14T05:15:15;100665.66;;;-13.71;80.55
56074;BME280;41950;55.840;37.442;2024-02-14T05:17:44;100695.75;;;-13.61;80.63
56074;BME280;41950;55.840;37.442;2024-02-14T05:20:10;100786.34;;;-13.09;80.32
56074;BME280;41950;55.840;37.442;2024-02-14T05:22:40;100736.97;;;-13.39;80.40
56074;BME280;41950;55.840;37.442;2024-02-14T05:25:06;100803.22;;;-12.98;80.47
56074;BME280;41950;55.840;37.442;2024-02-14T05:27:57;100784.69;;;-13.00;80.18
56074;BME280;41950;55.840;37.442;2024-02-14T05:30:29;100772.09;;;-13.10;80.11
56074;BME280;41950;55.840;37.442;2024-02-14T05:33:12;100803.31;;;-12.88;80.14
56074;BME280;41950;55.840;37.442;2024-02-14T05:35:38;100739.69;;;-13.19;79.98
56074;BME280;41950;55.840;37.442;2024-02-14T05:38:07;100720.19;;;-13.31;79.66
56074;BME280;41950;55.840;37.442;2024-02-14T05:40:34;100810.09;;;-12.87;79.75
56074;BME280;41950;55.840;37.442;2024-02-14T05:43:03;100733.84;;;-13.28;79.47
56074;BME280;41950;55.840;37.442;2024-02-14T05:45:29;100810.06;;;-12.78;79.58
56074;BME280;41950;55.840;37.442;2024-02-14T05:47:55;100820.56;;;-12.63;79.36
56074;BME280;41950;55.840;37.442;2024-02-14T05:50:20;100752.97;;;-13.01;79.15
56074;BME280;41950;55.840;37.442;2024-02-14T05:52:46;100825.28;;;-12.58;78.79
56074;BME280;41950;55.840;37.442;2024-02-14T05:55:12;100801.91;;;-12.67;78.45
56074;BME280;41950;55.840;37.442;2024-02-14T05:57:51;100782.44;;;-12.80;78.50
56074;BME280;41950;55.840;37.442;2024-02-14T06:00:20;100797.06;;;-12.65;78.32
56074;BME280;41950;55.840;37.442;2024-02-14T06:02:47;100730.63;;;-12.99;78.04
56074;BME280;41950;55.840;37.442;2024-02-14T06:05:14;100806.16;;;-12.57;77.87
56074;BME280;41950;55.840;37.442;2024-02-14T06:07:40;100841.94;;;-12.31;77.91
56074;BME280;41950;55.840;37.442;2024-02-14T06:10:07;100837.00;;;-12.21;77.40
56074;BME280;41950;55.840;37.442;2024-02-14T06:12:34;100836.53;;;-12.17;77.20
56074;BME280;41950;55.840;37.442;2024-02-14T06:15:02;100805.16;;;-12.32;77.16
56074;BME280;41950;55.840;37.442;2024-02-14T06:17:33;100646.19;;;-13.12;76.94
56074;BME280;41950;55.840;37.442;2024-02-14T06:19:58;100748.88;;;-12.45;76.78
56074;BME280;41950;55.840;37.442;2024-02-14T06:22:24;100818.81;;;-12.09;76.23
56074;BME280;41950;55.840;37.442;2024-02-14T06:24:50;100835.22;;;-11.94;76.20
56074;BME280;41950;55.840;37.442;2024-02-14T06:27:16;100794.75;;;-12.18;75.97
56074;BME280;41950;55.840;37.442;2024-02-14T06:29:43;100836.31;;;-11.82;75.77
56074;BME280;41950;55.840;37.442;2024-02-14T06:32:09;100840.63;;;-11.71;75.95
56074;BME280;41950;55.840;37.442;2024-02-14T06:34:35;100803.69;;;-11.92;75.20
56074;BME280;41950;55.840;37.442;2024-02-14T06:37:00;100839.66;;;-11.63;75.38
56074;BME280;41950;55.840;37.442;2024-02-14T06:39:26;100845.69;;;-11.61;75.18
56074;BME280;41950;55.840;37.442;2024-02-14T06:41:52;100838.38;;;-11.49;75.27
56074;BME280;41950;55.840;37.442;2024-02-14T06:44:18;100844.53;;;-11.45;74.81
56074;BME280;41950;55.840;37.442;2024-02-14T06:46:44;100831.31;;;-11.53;74.13
56074;BME280;41950;55.840;37.442;2024-02-14T06:49:10;100839.31;;;-11.57;74.08
56074;BME280;41950;55.840;37.442;2024-02-14T06:51:36;100691.13;;;-12.38;74.19
56074;BME280;41950;55.840;37.442;2024-02-14T06:54:02;100844.41;;;-11.47;73.81
56074;BME280;41950;55.840;37.442;2024-02-14T06:56:29;100767.66;;;-11.94;73.85
56074;BME280;41950;55.840;37.442;2024-02-14T06:58:56;100782.84;;;-11.82;73.96
56074;BME280;41950;55.840;37.442;2024-02-14T07:01:26;100850.13;;;-11.29;74.23
56074;BME280;41950;55.840;37.442;2024-02-14T07:03:52;100815.38;;;-11.45;74.06
56074;BME280;41950;55.840;37.442;2024-02-14T07:06:19;100827.97;;;-11.25;73.98
56074;BME280;41950;55.840;37.442;2024-02-14T07:08:45;100784.69;;;-11.42;73.80
56074;BME280;41950;55.840;37.442;2024-02-14T07:11:10;100785.22;;;-11.36;73.24
56074;BME280;41950;55.840;37.442;2024-02-14T07:13:37;100859.09;;;-10.94;73.05
56074;BME280;41950;55.840;37.442;2024-02-14T07:16:02;100849.09;;;-10.83;73.07
56074;BME280;41950;55.840;37.442;2024-02-14T07:18:28;100833.34;;;-11.01;72.31
56074;BME280;41950;55.840;37.442;2024-02-14T07:20:54;100788.63;;;-11.26;72.56
56074;BME280;41950;55.840;37.442;2024-02-14T07:23:20;100819.75;;;-10.95;72.57
56074;BME280;41950;55.840;37.442;2024-02-14T07:25:46;100857.22;;;-10.57;72.77
56074;BME280;41950;55.840;37.442;2024-02-14T07:28:11;100832.25;;;-10.66;72.06
56074;BME280;41950;55.840;37.442;2024-02-14T07:30:37;100818.75;;;-10.86;71.66
56074;BME280;41950;55.840;37.442;2024-02-14T07:33:03;100819.13;;;-10.82;71.97
56074;BME280;41950;55.840;37.442;2024-02-14T07:35:29;100783.78;;;-10.85;71.97
56074;BME280;41950;55.840;37.442;2024-02-14T07:37:55;100831.16;;;-10.39;72.06
56074;BME280;41950;55.840;37.442;2024-02-14T07:40:21;100854.75;;;-10.26;71.54
56074;BME280;41950;55.840;37.442;2024-02-14T07:43:07;100771.75;;;-10.69;71.38
56074;BME280;41950;55.840;37.442;2024-02-14T07:45:33;100858.75;;;-10.18;71.33
56074;BME280;41950;55.840;37.442;2024-02-14T07:47:59;100847.47;;;-10.23;71.13
56074;BME280;41950;55.840;37.442;2024-02-14T07:50:25;100857.00;;;-10.19;71.18
56074;BME280;41950;55.840;37.442;2024-02-14T07:52:53;100849.00;;;-10.25;71.42
56074;BME280;41950;55.840;37.442;2024-02-14T07:55:19;100834.19;;;-10.33;71.36
56074;BME280;41950;55.840;37.442;2024-02-14T07:57:44;100797.63;;;-10.49;71.27
56074;BME280;41950;55.840;37.442;2024-02-14T08:00:11;100747.09;;;-10.64;71.56
56074;BME280;41950;55.840;37.442;2024-02-14T08:02:40;100809.72;;;-10.25;71.26
56074;BME280;41950;55.840;37.442;2024-02-14T08:05:08;100735.50;;;-10.72;70.99
56074;BME280;41950;55.840;37.442;2024-02-14T08:07:34;100773.81;;;-10.54;71.13
56074;BME280;41950;55.840;37.442;2024-02-14T08:10:09;100757.13;;;-10.44;71.29
56074;BME280;41950;55.840;37.442;2024-02-14T08:12:35;100830.16;;;-10.00;71.04
56074;BME280;41950;55.840;37.442;2024-02-14T08:15:01;100859.78;;;-9.76;70.46
56074;BME280;41950;55.840;37.442;2024-02-14T08:17:30;100869.81;;;-9.66;70.37
56074;BME280;41950;55.840;37.442;2024-02-14T08:19:56;100762.72;;;-10.16;70.62
56074;BME280;41950;55.840;37.442;2024-02-14T08:22:22;100741.03;;;-10.05;70.50
56074;BME280;41950;55.840;37.442;2024-02-14T08:24:48;100876.03;;;-9.20;69.98
56074;BME280;41950;55.840;37.442;2024-02-14T08:27:13;100713.16;;;-10.08;69.82
56074;BME280;41950;55.840;37.442;2024-02-14T08:29:39;100879.16;;;-9.02;70.16
56074;BME280;41950;55.840;37.442;2024-02-14T08:32:05;100670.84;;;-10.04;69.93
56074;BME280;41950;55.840;37.442;2024-02-14T08:34:31;100575.38;;;-10.57;69.72
56074;BME280;41950;55.840;37.442;2024-02-14T08:36:57;100683.25;;;-9.85;69.25
56074;BME280;41950;55.840;37.442;2024-02-14T08:39:23;100750.28;;;-9.42;68.81
56074;BME280;41950;55.840;37.442;2024-02-14T08:41:49;100765.72;;;-9.37;68.90
56074;BME280;41950;55.840;37.442;2024-02-14T08:44:16;100746.94;;;-9.52;68.44
56074;BME280;41950;55.840;37.442;2024-02-14T08:46:43;100872.88;;;-8.75;68.35
56074;BME280;41950;55.840;37.442;2024-02-14T08:49:10;100853.75;;;-8.73;68.49
56074;BME280;41950;55.840;37.442;2024-02-14T08:51:36;100775.41;;;-9.10;68.30
56074;BME280;41950;55.840;37.442;2024-02-14T08:54:03;100758.81;;;-9.08;67.78
56074;BME280;41950;55.840;37.442;2024-02-14T08:56:33;100844.06;;;-8.47;67.72
56074;BME280;41950;55.840;37.442;2024-02-14T08:59:00;100829.28;;;-8.42;67.71
56074;BME280;41950;55.840;37.442;2024-02-14T09:01:28;100824.16;;;-8.44;67.21
56074;BME280;41950;55.840;37.442;2024-02-14T09:03:54;100879.88;;;-8.05;66.44
56074;BME280;41950;55.840;37.442;2024-02-14T09:06:20;100880.97;;;-8.02;66.20
56074;BME280;41950;55.840;37.442;2024-02-14T09:08:49;100885.19;;;-7.91;65.98
56074;BME280;41950;55.840;37.442;2024-02-14T09:11:21;100869.47;;;-7.98;64.76
56074;BME280;41950;55.840;37.442;2024-02-14T09:13:48;100833.16;;;-8.24;65.21
56074;BME280;41950;55.840;37.442;2024-02-14T09:16:16;100891.13;;;-7.90;65.75
56074;BME280;41950;55.840;37.442;2024-02-14T09:18:44;100866.25;;;-7.86;65.59
56074;BME280;41950;55.840;37.442;2024-02-14T09:21:10;100859.56;;;-7.85;64.70
56074;BME280;41950;55.840;37.442;2024-02-14T09:23:36;100808.69;;;-8.03;64.79
56074;BME280;41950;55.840;37.442;2024-02-14T09:26:06;100879.38;;;-7.44;64.44
56074;BME280;41950;55.840;37.442;2024-02-14T09:28:32;100878.28;;;-7.48;64.28
56074;BME280;41950;55.840;37.442;2024-02-14T09:31:01;100900.66;;;-7.41;63.55
56074;BME280;41950;55.840;37.442;2024-02-14T09:33:29;100864.25;;;-7.56;63.93
56074;BME280;41950;55.840;37.442;2024-02-14T09:35:55;100862.50;;;-7.45;64.18
56074;BME280;41950;55.840;37.442;2024-02-14T09:38:21;100746.25;;;-8.07;64.03
56074;BME280;41950;55.840;37.442;2024-02-14T09:40:51;100842.34;;;-7.34;63.83
56074;BME280;41950;55.840;37.442;2024-02-14T09:43:39;100847.69;;;-7.18;63.69
56074;BME280;41950;55.840;37.442;2024-02-14T09:46:08;100769.09;;;-7.59;63.18
56074;BME280;41950;55.840;37.442;2024-02-14T09:48:35;100821.84;;;-7.27;62.69
56074;BME280;41950;55.840;37.442;2024-02-14T09:51:04;100875.25;;;-6.97;62.68
56074;BME280;41950;55.840;37.442;2024-02-14T09:53:31;100897.41;;;-6.81;62.91
56074;BME280;41950;55.840;37.442;2024-02-14T09:55:59;100890.78;;;-6.68;62.98
56074;BME280;41950;55.840;37.442;2024-02-14T09:58:25;100861.63;;;-6.76;62.50
56074;BME280;41950;55.840;37.442;2024-02-14T10:00:52;100794.31;;;-7.24;61.64
56074;BME280;41950;55.840;37.442;2024-02-14T10:03:18;100855.69;;;-6.88;61.73
56074;BME280;41950;55.840;37.442;2024-02-14T10:05:44;100812.50;;;-7.16;61.15
56074;BME280;41950;55.840;37.442;2024-02-14T10:08:10;100724.72;;;-7.80;60.90
56074;BME280;41950;55.840;37.442;2024-02-14T10:10:37;100905.06;;;-6.68;61.38
56074;BME280;41950;55.840;37.442;2024-02-14T10:13:07;100786.75;;;-7.24;61.48
56074;BME280;41950;55.840;37.442;2024-02-14T10:15:33;100795.81;;;-7.14;61.12
56074;BME280;41950;55.840;37.442;2024-02-14T10:17:59;100797.56;;;-7.01;61.08
56074;BME280;41950;55.840;37.442;2024-02-14T10:20:26;100766.03;;;-7.31;60.70
56074;BME280;41950;55.840;37.442;2024-02-14T10:22:53;100716.81;;;-7.50;61.03
56074;BME280;41950;55.840;37.442;2024-02-14T10:25:25;100710.03;;;-7.51;60.34
56074;BME280;41950;55.840;37.442;2024-02-14T10:27:51;100843.75;;;-6.79;60.96
56074;BME280;41950;55.840;37.442;2024-02-14T10:30:17;100897.66;;;-6.42;61.25
56074;BME280;41950;55.840;37.442;2024-02-14T10:32:43;100825.69;;;-6.60;60.82
56074;BME280;41950;55.840;37.442;2024-02-14T10:35:15;100873.03;;;-6.33;60.25
56074;BME280;41950;55.840;37.442;2024-02-14T10:37:44;100823.84;;;-6.74;60.30
56074;BME280;41950;55.840;37.442;2024-02-14T10:40:10;100874.38;;;-6.38;60.77
56074;BME280;41950;55.840;37.442;2024-02-14T10:42:36;100834.22;;;-6.46;61.24
56074;BME280;41950;55.840;37.442;2024-02-14T10:45:03;100815.81;;;-6.57;60.06
56074;BME280;41950;55.840;37.442;2024-02-14T10:47:34;100850.56;;;-6.41;60.30
56074;BME280;41950;55.840;37.442;2024-02-14T10:50:03;100815.06;;;-6.68;60.73
56074;BME280;41950;55.840;37.442;2024-02-14T10:52:32;100823.69;;;-6.52;60.82
56074;BME280;41950;55.840;37.442;2024-02-14T10:55:01;100860.38;;;-6.21;60.99
56074;BME280;41950;55.840;37.442;2024-02-14T10:57:30;100844.38;;;-6.33;60.93
56074;BME280;41950;55.840;37.442;2024-02-14T11:00:01;100869.41;;;-6.25;59.73
56074;BME280;41950;55.840;37.442;2024-02-14T11:02:30;100893.53;;;-6.16;60.19
56074;BME280;41950;55.840;37.442;2024-02-14T11:04:58;100889.25;;;-6.17;60.27
56074;BME280;41950;55.840;37.442;2024-02-14T11:07:24;100829.53;;;-6.53;60.03
56074;BME280;41950;55.840;37.442;2024-02-14T11:10:06;100878.44;;;-6.28;60.33
56074;BME280;41950;55.840;37.442;2024-02-14T11:12:34;100882.34;;;-6.20;60.50
56074;BME280;41950;55.840;37.442;2024-02-14T11:15:21;100890.44;;;-6.12;60.21
56074;BME280;41950;55.840;37.442;2024-02-14T11:17:48;100867.75;;;-6.24;60.04
56074;BME280;41950;55.840;37.442;2024-02-14T11:20:21;100750.81;;;-6.96;60.44
56074;BME280;41950;55.840;37.442;2024-02-14T11:22:53;100784.75;;;-6.68;60.15
56074;BME280;41950;55.840;37.442;2024-02-14T11:25:31;100837.13;;;-6.29;60.39
56074;BME280;41950;55.840;37.442;2024-02-14T11:28:15;100885.75;;;-5.95;60.81
56074;BME280;41950;55.840;37.442;2024-02-14T11:30:43;100886.06;;;-5.90;60.97
56074;BME280;41950;55.840;37.442;2024-02-14T11:33:14;100847.06;;;-6.18;60.70
56074;BME280;41950;55.840;37.442;2024-02-14T11:35:45;100884.00;;;-5.96;60.63
56074;BME280;41950;55.840;37.442;2024-02-14T11:38:11;100889.28;;;-5.93;60.43
56074;BME280;41950;55.840;37.442;2024-02-14T11:40:37;100859.19;;;-6.26;60.25
56074;BME280;41950;55.840;37.442;2024-02-14T11:43:14;100838.34;;;-6.35;60.83
56074;BME280;41950;55.840;37.442;2024-02-14T11:45:41;100869.16;;;-6.16;60.82
56074;BME280;41950;55.840;37.442;2024-02-14T11:48:16;100885.13;;;-6.04;60.55
56074;BME280;41950;55.840;37.442;2024-02-14T11:50:44;100865.94;;;-6.13;60.81
56074;BME280;41950;55.840;37.442;2024-02-14T11:53:11;100836.25;;;-6.29;60.59
56074;BME280;41950;55.840;37.442;2024-02-14T11:55:39;100877.19;;;-5.97;60.86
56074;BME280;41950;55.840;37.442;2024-02-14T11:58:10;100891.94;;;-6.03;61.03
56074;BME280;41950;55.840;37.442;2024-02-14T12:00:37;100846.09;;;-6.20;61.36
56074;BME280;41950;55.840;37.442;2024-02-14T12:03:15;100873.50;;;-6.02;60.86
56074;BME280;41950;55.840;37.442;2024-02-14T12:05:41;100866.81;;;-6.13;61.15
56074;BME280;41950;55.840;37.442;2024-02-14T12:08:10;100851.19;;;-6.32;60.81
56074;BME280;41950;55.840;37.442;2024-02-14T12:10:36;100838.59;;;-6.44;61.16
56074;BME280;41950;55.840;37.442;2024-02-14T12:13:09;100792.69;;;-6.75;61.62
56074;BME280;41950;55.840;37.442;2024-02-14T12:15:40;100821.53;;;-6.71;61.41
56074;BME280;41950;55.840;37.442;2024-02-14T12:18:08;100892.94;;;-6.37;61.57
56074;BME280;41950;55.840;37.442;2024-02-14T12:20:35;100883.03;;;-6.34;61.95
56074;BME280;41950;55.840;37.442;2024-02-14T12:23:01;100883.38;;;-6.30;62.16
56074;BME280;41950;55.840;37.442;2024-02-14T12:25:27;100882.81;;;-6.26;61.95
56074;BME280;41950;55.840;37.442;2024-02-14T12:27:56;100877.75;;;-6.26;62.04
56074;BME280;41950;55.840;37.442;2024-02-14T12:30:22;100883.59;;;-6.27;62.33
56074;BME280;41950;55.840;37.442;2024-02-14T12:33:00;100884.25;;;-6.29;62.46
56074;BME280;41950;55.840;37.442;2024-02-14T12:35:34;100856.31;;;-6.56;62.42
56074;BME280;41950;55.840;37.442;2024-02-14T12:38:05;100889.25;;;-6.54;61.69
56074;BME280;41950;55.840;37.442;2024-02-14T12:40:38;100833.75;;;-6.89;62.36
56074;BME280;41950;55.840;37.442;2024-02-14T12:43:08;100843.63;;;-6.92;61.96